Time,TemperatureF,DewpointF,PressureIn,WindDirection,WindDirectionDegrees,WindSpeedMPH,WindSpeedGustMPH,Humidity,HourlyPrecipIn,Conditions,Clouds,dailyrainin,SoftwareType,DateUTC
2013-03-23 00:02:00,25.0,22.0,29.70,West,273,0.0,2.0,87,0.00,,,0.00,,2013-03-23 04:02:00,
2013-03-23 00:12:00,25.0,22.0,29.70,West,273,0.0,2.0,87,0.00,,,0.00,,2013-03-23 04:12:00,
2013-03-23 00:23:00,25.0,21.0,29.70,WNW,287,0.0,3.0,84,0.00,,,0.00,,2013-03-23 04:23:00,
2013-03-23 00:32:00,25.0,21.0,29.70,NW,317,0.0,8.0,83,0.00,,,0.00,,2013-03-23 04:32:00,
2013-03-23 00:43:00,25.0,21.0,29.70,NW,317,0.0,8.0,83,0.00,,,0.00,,2013-03-23 04:43:00,
2013-03-23 00:53:00,25.0,21.0,29.70,SSE,163,0.0,4.0,84,0.00,,,0.00,,2013-03-23 04:53:00,
2013-03-23 01:02:00,25.0,21.0,29.69,WNW,294,0.0,6.0,85,0.00,,,0.00,,2013-03-23 05:02:00,
2013-03-23 01:12:00,25.0,21.0,29.69,WNW,294,0.0,6.0,85,0.00,,,0.00,,2013-03-23 05:12:00,
2013-03-23 01:22:00,25.0,21.0,29.69,WSW,244,0.0,8.0,84,0.00,,,0.00,,2013-03-23 05:22:00,
2013-03-23 01:32:00,25.0,21.0,29.68,SSW,194,3.0,5.0,86,0.00,,,0.00,,2013-03-23 05:32:00,
2013-03-23 01:42:00,25.0,21.0,29.68,SSW,194,3.0,5.0,86,0.00,,,0.00,,2013-03-23 05:42:00,
2013-03-23 01:53:00,25.0,22.0,29.69,South,184,2.0,7.0,88,0.00,,,0.00,,2013-03-23 05:53:00,
2013-03-23 02:02:00,24.0,21.0,29.68,SSE,159,2.0,7.0,89,0.00,,,0.00,,2013-03-23 06:02:00,
2013-03-23 02:12:00,24.0,21.0,29.68,SSE,159,2.0,7.0,89,0.00,,,0.00,,2013-03-23 06:12:00,
2013-03-23 02:22:00,24.0,22.0,29.68,SSE,161,1.0,6.0,90,0.00,,,0.00,,2013-03-23 06:22:00,
2013-03-23 02:32:00,24.0,22.0,29.67,SSE,163,1.0,5.0,90,0.00,,,0.00,,2013-03-23 06:32:00,
2013-03-23 02:42:00,24.0,22.0,29.67,SSE,163,1.0,5.0,90,0.00,,,0.00,,2013-03-23 06:42:00,
2013-03-23 02:52:00,24.0,22.0,29.67,NNE,32,2.0,8.0,91,0.00,,,0.00,,2013-03-23 06:52:00,
2013-03-23 03:02:00,25.0,23.0,29.67,NW,318,1.0,5.0,91,0.00,,,0.00,,2013-03-23 07:02:00,
2013-03-23 03:12:00,25.0,23.0,29.67,NW,318,1.0,5.0,91,0.00,,,0.00,,2013-03-23 07:12:00,
2013-03-23 03:22:00,25.0,22.0,29.67,NNE,26,4.0,7.0,90,0.01,,,0.01,,2013-03-23 07:22:00,
2013-03-23 03:32:00,25.0,22.0,29.66,SW,230,0.0,5.0,90,0.01,,,0.01,,2013-03-23 07:32:00,
2013-03-23 03:42:00,25.0,22.0,29.66,SW,230,0.0,5.0,90,0.01,,,0.01,,2013-03-23 07:42:00,
2013-03-23 03:52:00,26.0,23.0,29.66,WNW,284,0.0,10.0,90,0.01,,,0.01,,2013-03-23 07:52:00,
2013-03-23 04:02:00,26.0,23.0,29.65,WSW,245,3.0,7.0,90,0.01,,,0.01,,2013-03-23 08:02:00,
2013-03-23 04:13:00,26.0,23.0,29.65,WSW,245,3.0,7.0,90,0.01,,,0.01,,2013-03-23 08:13:00,
2013-03-23 04:22:00,26.0,23.0,29.65,NW,323,0.0,7.0,90,0.00,,,0.01,,2013-03-23 08:22:00,
2013-03-23 04:32:00,26.0,23.0,29.65,West,279,4.0,9.0,90,0.00,,,0.01,,2013-03-23 08:32:00,
2013-03-23 04:42:00,26.0,23.0,29.65,West,279,4.0,9.0,90,0.00,,,0.01,,2013-03-23 08:42:00,
2013-03-23 04:52:00,26.0,23.0,29.64,WNW,300,0.0,10.0,89,0.00,,,0.01,,2013-03-23 08:52:00,
2013-03-23 05:02:00,26.0,23.0,29.64,West,280,3.0,13.0,89,0.00,,,0.01,,2013-03-23 09:02:00,
2013-03-23 05:12:00,26.0,23.0,29.64,West,280,3.0,13.0,89,0.00,,,0.01,,2013-03-23 09:12:00,
2013-03-23 05:22:00,27.0,24.0,29.63,North,351,7.0,15.0,88,0.00,,,0.01,,2013-03-23 09:22:00,
2013-03-23 05:33:00,27.0,24.0,29.63,North,360,1.0,4.0,87,0.00,,,0.00,,2013-03-23 09:33:00,
2013-03-23 05:43:00,27.0,24.0,29.63,North,360,1.0,4.0,87,0.00,,,0.00,,2013-03-23 09:43:00,
2013-03-23 05:53:00,27.0,23.0,29.64,NE,48,0.0,10.0,86,0.00,,,0.00,,2013-03-23 09:53:00,
2013-03-23 06:03:00,27.0,23.0,29.65,NE,46,7.0,13.0,86,0.00,,,0.00,,2013-03-23 10:03:00,
2013-03-23 06:13:00,27.0,23.0,29.65,NE,46,7.0,13.0,86,0.00,,,0.00,,2013-03-23 10:13:00,
2013-03-23 06:23:00,27.0,23.0,29.65,NNW,348,6.0,10.0,85,0.00,,,0.00,,2013-03-23 10:23:00,
2013-03-23 06:34:00,27.0,23.0,29.65,NW,314,5.0,12.0,83,0.00,,,0.00,,2013-03-23 10:34:00,
2013-03-23 06:42:00,27.0,23.0,29.65,NW,314,5.0,12.0,83,0.00,,,0.00,,2013-03-23 10:42:00,
2013-03-23 06:52:00,27.0,22.0,29.66,NNW,334,4.0,9.0,82,0.00,,,0.00,,2013-03-23 10:52:00,
2013-03-23 07:03:00,27.0,22.0,29.66,North,5,0.0,13.0,80,0.00,,,0.00,,2013-03-23 11:03:00,
2013-03-23 07:12:00,27.0,22.0,29.66,North,5,0.0,13.0,80,0.00,,,0.00,,2013-03-23 11:12:00,
2013-03-23 07:22:00,27.0,22.0,29.66,WNW,303,5.0,22.0,81,0.00,,,0.00,,2013-03-23 11:22:00,
2013-03-23 07:32:00,27.0,22.0,29.66,WNW,298,10.0,16.0,80,0.00,,,0.00,,2013-03-23 11:32:00,
2013-03-23 07:42:00,27.0,22.0,29.66,WNW,298,10.0,16.0,80,0.00,,,0.00,,2013-03-23 11:42:00,
2013-03-23 07:52:00,27.0,22.0,29.66,NW,319,5.0,14.0,81,0.00,,,0.00,,2013-03-23 11:52:00,
2013-03-23 08:02:00,27.0,22.0,29.66,WNW,283,10.0,15.0,81,0.00,,,0.00,,2013-03-23 12:02:00,
2013-03-23 08:13:00,27.0,22.0,29.66,WNW,283,10.0,15.0,81,0.00,,,0.00,,2013-03-23 12:13:00,
2013-03-23 08:22:00,27.0,22.0,29.65,SW,229,1.0,14.0,81,0.00,,,0.00,,2013-03-23 12:22:00,
2013-03-23 08:33:00,27.0,22.0,29.65,West,272,3.0,8.0,81,0.00,,,0.00,,2013-03-23 12:33:00,
2013-03-23 08:42:00,27.0,22.0,29.65,West,272,3.0,8.0,81,0.00,,,0.00,,2013-03-23 12:42:00,
2013-03-23 08:52:00,28.0,22.0,29.64,NW,311,6.0,15.0,78,0.00,,,0.00,,2013-03-23 12:52:00,
2013-03-23 09:03:00,28.0,22.0,29.65,NW,306,4.0,13.0,77,0.00,,,0.00,,2013-03-23 13:03:00,
2013-03-23 09:12:00,28.0,22.0,29.65,NW,306,4.0,13.0,77,0.00,,,0.00,,2013-03-23 13:12:00,
2013-03-23 09:23:00,29.0,22.0,29.65,NW,315,4.0,12.0,75,0.00,,,0.00,,2013-03-23 13:23:00,
2013-03-23 09:33:00,29.0,22.0,29.64,SW,232,6.0,20.0,74,0.00,,,0.00,,2013-03-23 13:33:00,
2013-03-23 09:43:00,29.0,22.0,29.64,SW,232,6.0,20.0,74,0.00,,,0.00,,2013-03-23 13:43:00,
2013-03-23 09:53:00,30.0,22.0,29.64,NW,318,5.0,12.0,72,0.00,,,0.00,,2013-03-23 13:53:00,
2013-03-23 10:03:00,30.0,22.0,29.64,NNW,348,9.0,19.0,71,0.00,,,0.00,,2013-03-23 14:03:00,
2013-03-23 10:12:00,30.0,22.0,29.64,NNW,348,9.0,19.0,71,0.00,,,0.00,,2013-03-23 14:12:00,
2013-03-23 10:22:00,31.0,22.0,29.64,North,9,1.0,16.0,70,0.00,,,0.00,,2013-03-23 14:22:00,
2013-03-23 10:32:00,31.0,22.0,29.64,SW,219,4.0,15.0,69,0.00,,,0.00,,2013-03-23 14:32:00,
2013-03-23 10:43:00,31.0,22.0,29.64,SW,219,4.0,15.0,69,0.00,,,0.00,,2013-03-23 14:43:00,
2013-03-23 10:53:00,31.0,22.0,29.64,NW,310,5.0,16.0,69,0.00,,,0.00,,2013-03-23 14:53:00,
2013-03-23 11:03:00,31.0,22.0,29.64,North,360,3.0,13.0,68,0.00,,,0.00,,2013-03-23 15:03:00,
2013-03-23 11:12:00,31.0,22.0,29.64,North,360,3.0,13.0,68,0.00,,,0.00,,2013-03-23 15:12:00,
2013-03-23 11:22:00,31.0,20.0,29.64,NNW,336,4.0,13.0,64,0.00,,,0.00,,2013-03-23 15:22:00,
2013-03-23 11:33:00,32.0,20.0,29.63,North,349,7.0,23.0,62,0.00,,,0.00,,2013-03-23 15:33:00,
2013-03-23 11:43:00,32.0,20.0,29.63,North,349,7.0,23.0,62,0.00,,,0.00,,2013-03-23 15:43:00,
2013-03-23 11:53:00,33.0,21.0,29.64,West,277,10.0,25.0,60,0.00,,,0.00,,2013-03-23 15:53:00,
2013-03-23 12:03:00,33.0,21.0,29.63,NW,321,8.0,19.0,60,0.00,,,0.00,,2013-03-23 16:03:00,
2013-03-23 12:13:00,33.0,21.0,29.63,NW,321,8.0,19.0,60,0.00,,,0.00,,2013-03-23 16:13:00,
2013-03-23 12:23:00,33.0,19.0,29.63,ENE,69,15.0,25.0,57,0.01,,,0.01,,2013-03-23 16:23:00,
2013-03-23 12:33:00,34.0,20.0,29.62,NW,315,5.0,19.0,57,0.01,,,0.01,,2013-03-23 16:33:00,
2013-03-23 12:43:00,34.0,20.0,29.62,NW,315,5.0,19.0,57,0.01,,,0.01,,2013-03-23 16:43:00,
2013-03-23 12:53:00,34.0,20.0,29.63,WNW,300,7.0,24.0,56,0.02,,,0.02,,2013-03-23 16:53:00,
2013-03-23 13:03:00,36.0,21.0,29.63,WSW,238,8.0,24.0,53,0.02,,,0.02,,2013-03-23 17:03:00,
2013-03-23 13:12:00,36.0,21.0,29.64,West,280,1.0,15.0,54,0.02,,,0.03,,2013-03-23 17:12:00,
2013-03-23 13:23:00,36.0,21.0,29.64,West,280,1.0,15.0,54,0.02,,,0.03,,2013-03-23 17:23:00,
2013-03-23 13:33:00,34.0,22.0,29.65,NE,56,9.0,18.0,60,0.02,,,0.03,,2013-03-23 17:33:00,
2013-03-23 13:42:00,34.0,22.0,29.65,NE,56,9.0,18.0,60,0.02,,,0.03,,2013-03-23 17:42:00,
2013-03-23 13:53:00,33.0,22.0,29.65,NNE,14,3.0,14.0,64,0.01,,,0.03,,2013-03-23 17:53:00,
2013-03-23 14:03:00,33.0,23.0,29.65,NNW,331,0.0,14.0,66,0.01,,,0.03,,2013-03-23 18:03:00,
2013-03-23 14:12:00,33.0,23.0,29.65,NNW,331,0.0,14.0,66,0.01,,,0.03,,2013-03-23 18:12:00,
2013-03-23 14:22:00,33.0,25.0,29.65,WNW,288,4.0,8.0,71,0.00,,,0.03,,2013-03-23 18:22:00,
2013-03-23 14:32:00,33.0,25.0,29.66,NW,306,7.0,12.0,72,0.00,,,0.00,,2013-03-23 18:32:00,
2013-03-23 14:42:00,33.0,25.0,29.66,NW,306,7.0,12.0,72,0.00,,,0.00,,2013-03-23 18:42:00,
2013-03-23 14:53:00,32.0,25.0,29.66,NNW,336,5.0,13.0,75,0.00,,,0.00,,2013-03-23 18:53:00,
2013-03-23 15:03:00,31.0,25.0,29.66,NE,50,2.0,15.0,78,0.01,,,0.01,,2013-03-23 19:03:00,
2013-03-23 15:13:00,31.0,25.0,29.66,NE,50,2.0,15.0,78,0.01,,,0.01,,2013-03-23 19:13:00,
2013-03-23 15:23:00,32.0,24.0,29.66,NNW,330,7.0,19.0,73,0.01,,,0.01,,2013-03-23 19:23:00,
2013-03-23 15:32:00,33.0,23.0,29.66,WNW,289,5.0,14.0,66,0.01,,,0.01,,2013-03-23 19:32:00,
2013-03-23 15:42:00,33.0,23.0,29.66,WNW,289,5.0,14.0,66,0.01,,,0.01,,2013-03-23 19:42:00,
2013-03-23 15:53:00,34.0,22.0,29.67,NNW,340,6.0,26.0,62,0.01,,,0.01,,2013-03-23 19:53:00,
2013-03-23 16:03:00,34.0,22.0,29.67,North,9,5.0,18.0,62,0.00,,,0.01,,2013-03-23 20:03:00,
2013-03-23 16:13:00,34.0,22.0,29.67,North,9,5.0,18.0,62,0.00,,,0.01,,2013-03-23 20:13:00,
2013-03-23 16:22:00,33.0,22.0,29.67,North,350,9.0,16.0,64,0.00,,,0.01,,2013-03-23 20:22:00,
2013-03-23 16:32:00,33.0,23.0,29.68,NE,36,7.0,20.0,66,0.00,,,0.01,,2013-03-23 20:32:00,
2013-03-23 16:42:00,33.0,23.0,29.68,NE,36,7.0,20.0,66,0.00,,,0.01,,2013-03-23 20:42:00,
2013-03-23 16:53:00,33.0,24.0,29.68,NW,306,7.0,14.0,69,0.00,,,0.01,,2013-03-23 20:53:00,
2013-03-23 17:02:00,33.0,24.0,29.68,WNW,300,5.0,23.0,70,0.00,,,0.01,,2013-03-23 21:02:00,
2013-03-23 17:12:00,33.0,24.0,29.68,WNW,300,5.0,23.0,70,0.00,,,0.01,,2013-03-23 21:12:00,
2013-03-23 17:22:00,33.0,24.0,29.69,ENE,67,8.0,12.0,68,0.00,,,0.01,,2013-03-23 21:22:00,
2013-03-23 17:33:00,33.0,23.0,29.70,NNW,336,6.0,11.0,65,0.00,,,0.00,,2013-03-23 21:33:00,
2013-03-23 17:43:00,33.0,23.0,29.70,NNW,336,6.0,11.0,65,0.00,,,0.00,,2013-03-23 21:43:00,
2013-03-23 17:54:00,33.0,22.0,29.70,NNW,347,10.0,14.0,64,0.00,,,0.00,,2013-03-23 21:54:00,
2013-03-23 18:03:00,33.0,22.0,29.70,NW,326,5.0,24.0,64,0.00,,,0.00,,2013-03-23 22:03:00,
2013-03-23 18:13:00,33.0,22.0,29.70,NW,326,5.0,24.0,64,0.00,,,0.00,,2013-03-23 22:13:00,
2013-03-23 18:23:00,33.0,23.0,29.71,North,349,4.0,16.0,65,0.00,,,0.00,,2013-03-23 22:23:00,
2013-03-23 18:33:00,33.0,23.0,29.71,NNE,29,6.0,22.0,65,0.00,,,0.00,,2013-03-23 22:33:00,
2013-03-23 18:42:00,33.0,23.0,29.71,NNE,29,6.0,22.0,65,0.00,,,0.00,,2013-03-23 22:42:00,
2013-03-23 18:53:00,33.0,23.0,29.72,NNE,26,5.0,16.0,66,0.00,,,0.00,,2013-03-23 22:53:00,
2013-03-23 19:02:00,33.0,23.0,29.72,North,360,8.0,18.0,67,0.00,,,0.00,,2013-03-23 23:02:00,
2013-03-23 19:13:00,33.0,23.0,29.72,North,360,8.0,18.0,67,0.00,,,0.00,,2013-03-23 23:13:00,
2013-03-23 19:23:00,33.0,24.0,29.73,NNW,344,6.0,10.0,69,0.00,,,0.00,,2013-03-23 23:23:00,
2013-03-23 19:33:00,32.0,24.0,29.74,NW,325,7.0,14.0,71,0.00,,,0.00,,2013-03-23 23:33:00,
2013-03-23 19:43:00,32.0,24.0,29.74,NW,325,7.0,14.0,71,0.00,,,0.00,,2013-03-23 23:43:00,
2013-03-23 19:52:00,32.0,24.0,29.74,NNW,333,1.0,14.0,72,0.00,,,0.00,,2013-03-23 23:52:00,
2013-03-23 20:02:00,32.0,24.0,29.75,NW,326,6.0,12.0,72,0.00,,,0.00,,2013-03-24 00:02:00,
2013-03-23 20:13:00,32.0,24.0,29.75,NW,326,6.0,12.0,72,0.00,,,0.00,,2013-03-24 00:13:00,
2013-03-23 20:23:00,32.0,25.0,29.76,NNE,32,1.0,15.0,74,0.00,,,0.00,,2013-03-24 00:23:00,
2013-03-23 20:33:00,32.0,25.0,29.76,NW,321,1.0,16.0,74,0.00,,,0.00,,2013-03-24 00:33:00,
2013-03-23 20:42:00,32.0,25.0,29.76,NW,321,1.0,16.0,74,0.00,,,0.00,,2013-03-24 00:42:00,
2013-03-23 20:52:00,32.0,24.0,29.77,NNW,329,0.0,13.0,73,0.00,,,0.00,,2013-03-24 00:52:00,
2013-03-23 21:02:00,32.0,24.0,29.77,WNW,298,7.0,19.0,73,0.00,,,0.00,,2013-03-24 01:02:00,
2013-03-23 21:12:00,32.0,24.0,29.77,WNW,298,7.0,19.0,73,0.00,,,0.00,,2013-03-24 01:12:00,
2013-03-23 21:22:00,32.0,24.0,29.77,NNE,26,4.0,11.0,72,0.00,,,0.00,,2013-03-24 01:22:00,
2013-03-23 21:32:00,32.0,24.0,29.78,NNW,340,7.0,15.0,71,0.00,,,0.00,,2013-03-24 01:32:00,
2013-03-23 21:42:00,32.0,24.0,29.78,NNW,340,7.0,15.0,71,0.00,,,0.00,,2013-03-24 01:42:00,
2013-03-23 21:53:00,32.0,23.0,29.78,NNE,28,1.0,12.0,70,0.00,,,0.00,,2013-03-24 01:53:00,
2013-03-23 22:03:00,32.0,23.0,29.77,North,360,5.0,14.0,69,0.00,,,0.00,,2013-03-24 02:03:00,
2013-03-23 22:12:00,32.0,23.0,29.77,North,360,5.0,14.0,69,0.00,,,0.00,,2013-03-24 02:12:00,
2013-03-23 22:22:00,32.0,23.0,29.77,North,355,8.0,15.0,69,0.00,,,0.00,,2013-03-24 02:22:00,
2013-03-23 22:32:00,32.0,23.0,29.77,North,5,4.0,13.0,69,0.00,,,0.00,,2013-03-24 02:32:00,
2013-03-23 22:42:00,32.0,23.0,29.77,North,5,4.0,13.0,69,0.00,,,0.00,,2013-03-24 02:42:00,
2013-03-23 22:52:00,32.0,23.0,29.76,NNE,12,3.0,14.0,69,0.00,,,0.00,,2013-03-24 02:52:00,
2013-03-23 23:02:00,32.0,23.0,29.76,NNE,28,0.0,7.0,69,0.00,,,0.00,,2013-03-24 03:02:00,
2013-03-23 23:12:00,32.0,23.0,29.76,NNE,28,0.0,7.0,69,0.00,,,0.00,,2013-03-24 03:12:00,
2013-03-23 23:23:00,32.0,23.0,29.76,NW,324,3.0,10.0,69,0.00,,,0.00,,2013-03-24 03:23:00,
2013-03-23 23:33:00,32.0,23.0,29.76,NE,40,1.0,10.0,70,0.00,,,0.00,,2013-03-24 03:33:00,
2013-03-23 23:42:00,32.0,23.0,29.76,NE,40,1.0,10.0,70,0.00,,,0.00,,2013-03-24 03:42:00,
2013-03-23 23:53:00,32.0,24.0,29.76,NNE,24,4.0,10.0,72,0.00,,,0.00,,2013-03-24 03:53:00,